createdAt,value
2019-05-21T00:00:07.423Z,13.50
2019-05-21T00:02:35.933Z,15.60
2019-05-21T00:05:08.055Z,14.17
2019-05-21T00:07:36.479Z,17.60
2019-05-21T00:10:06.642Z,19.57
2019-05-21T00:12:35.520Z,22.77
2019-05-21T00:15:04.210Z,29.00
2019-05-21T00:17:32.644Z,21.00
2019-05-21T00:20:01.019Z,24.07
2019-05-21T00:22:29.441Z,25.20
2019-05-21T00:24:57.894Z,25.00
2019-05-21T00:27:26.289Z,25.40
2019-05-21T00:30:30.973Z,28.53
2019-05-21T00:33:35.401Z,23.37
2019-05-21T00:36:41.337Z,25.33
2019-05-21T00:39:46.310Z,21.97
2019-05-21T00:42:17.783Z,24.90
2019-05-21T00:44:46.201Z,22.43
2019-05-21T00:47:14.752Z,23.87
2019-05-21T00:49:43.112Z,23.60
2019-05-21T00:52:11.615Z,27.50
2019-05-21T00:54:40.017Z,24.40
2019-05-21T00:57:08.488Z,32.50
2019-05-21T00:59:36.891Z,26.90
2019-05-21T01:02:05.308Z,27.77
2019-05-21T01:04:33.769Z,38.67
2019-05-21T01:07:02.567Z,45.50
2019-05-21T01:09:31.013Z,34.20
2019-05-21T01:11:59.478Z,23.83
2019-05-21T01:14:27.872Z,37.17
2019-05-21T01:16:56.291Z,28.50
2019-05-21T01:19:24.693Z,22.50
2019-05-21T01:21:53.117Z,25.53
2019-05-21T01:24:21.517Z,21.97
2019-05-21T01:26:49.939Z,20.73
2019-05-21T01:29:18.356Z,14.83
2019-05-21T01:31:46.766Z,12.20
2019-05-21T01:34:15.173Z,11.83
2019-05-21T01:36:43.580Z,13.43
2019-05-21T01:39:12.042Z,14.23
2019-05-21T01:41:40.531Z,15.27
2019-05-21T01:44:08.999Z,15.90
2019-05-21T01:46:37.410Z,16.70
2019-05-21T01:49:05.824Z,16.53
2019-05-21T01:51:34.219Z,17.03
2019-05-21T01:54:02.842Z,19.53
2019-05-21T01:56:31.249Z,17.63
2019-05-21T01:58:59.702Z,16.07
2019-05-21T02:01:28.110Z,16.23
2019-05-21T02:03:56.523Z,17.87
2019-05-21T02:06:25.328Z,18.73
2019-05-21T02:08:53.737Z,17.43
2019-05-21T02:11:22.140Z,20.70
2019-05-21T02:13:50.623Z,16.10
2019-05-21T02:16:19.049Z,14.20
2019-05-21T02:18:47.470Z,15.03
2019-05-21T02:21:15.905Z,13.43
2019-05-21T02:23:44.318Z,15.20
2019-05-21T02:26:12.794Z,13.10
2019-05-21T02:28:41.229Z,13.90
2019-05-21T02:31:09.632Z,14.40
2019-05-21T02:33:38.056Z,14.77
2019-05-21T02:36:06.728Z,15.53
2019-05-21T02:38:35.153Z,19.43
2019-05-21T02:41:03.546Z,18.93
2019-05-21T02:43:31.959Z,12.70
2019-05-21T02:46:00.365Z,11.83
2019-05-21T02:48:28.806Z,12.60
2019-05-21T02:50:57.200Z,11.73
2019-05-21T02:53:25.625Z,12.93
2019-05-21T02:55:54.022Z,17.17
2019-05-21T02:58:22.441Z,14.83
2019-05-21T03:00:58.403Z,12.90
2019-05-21T03:03:28.444Z,13.43
2019-05-21T03:06:12.344Z,15.83
2019-05-21T03:08:26.984Z,13.70
2019-05-21T03:10:55.382Z,15.10
2019-05-21T03:13:23.799Z,15.40
2019-05-21T03:15:52.213Z,15.70
2019-05-21T03:18:20.635Z,14.90
2019-05-21T03:20:49.103Z,15.10
2019-05-21T03:23:17.536Z,19.10
2019-05-21T03:25:45.972Z,18.40
2019-05-21T03:28:14.384Z,16.47
2019-05-21T03:30:42.839Z,15.00
2019-05-21T03:33:11.309Z,18.50
2019-05-21T03:35:39.742Z,20.63
2019-05-21T03:38:08.117Z,14.37
2019-05-21T03:40:36.528Z,18.10
2019-05-21T03:43:04.941Z,16.03
2019-05-21T03:45:33.360Z,15.77
2019-05-21T03:48:01.758Z,18.17
2019-05-21T03:50:30.168Z,16.40
2019-05-21T03:52:58.581Z,15.17
2019-05-21T03:55:26.997Z,16.67
2019-05-21T03:57:55.403Z,18.57
2019-05-21T04:00:23.818Z,19.07
2019-05-21T04:02:52.217Z,17.03
2019-05-21T04:05:25.314Z,23.97
2019-05-21T04:07:53.790Z,19.10
2019-05-21T04:10:22.859Z,18.27
2019-05-21T04:13:06.643Z,22.93
2019-05-21T04:15:38.430Z,16.43
2019-05-21T04:18:11.450Z,17.33
2019-05-21T04:20:39.847Z,15.67
2019-05-21T04:23:08.247Z,16.50
2019-05-21T04:25:36.726Z,17.50
2019-05-21T04:28:05.127Z,16.87
2019-05-21T04:30:33.568Z,17.83
2019-05-21T04:33:02.017Z,17.13
2019-05-21T04:35:30.382Z,17.20
2019-05-21T04:37:58.791Z,14.90
2019-05-21T04:40:27.209Z,15.27
2019-05-21T04:42:55.614Z,14.50
2019-05-21T04:45:24.029Z,15.67
2019-05-21T04:47:52.433Z,20.37
2019-05-21T04:50:20.899Z,16.40
2019-05-21T04:52:49.270Z,21.27
2019-05-21T04:55:17.699Z,21.60
2019-05-21T04:57:46.101Z,19.93
2019-05-21T05:00:14.768Z,18.93
2019-05-21T05:02:43.213Z,20.40
2019-05-21T05:05:11.770Z,20.57
2019-05-21T05:07:40.172Z,22.97
2019-05-21T05:10:08.728Z,19.50
2019-05-21T05:12:37.145Z,19.50
2019-05-21T05:15:06.680Z,29.50
2019-05-21T05:17:35.116Z,21.47
2019-05-21T05:20:04.163Z,24.33
2019-05-21T05:22:32.574Z,22.87
2019-05-21T05:25:00.999Z,22.17
2019-05-21T05:27:29.394Z,22.33
2019-05-21T05:29:57.805Z,23.60
2019-05-21T05:32:26.675Z,26.07
2019-05-21T05:34:55.072Z,21.73
2019-05-21T05:37:23.489Z,24.53
2019-05-21T05:39:51.892Z,24.03
2019-05-21T05:42:20.296Z,23.40
2019-05-21T05:44:48.697Z,19.67
2019-05-21T05:47:17.195Z,24.00
2019-05-21T05:49:52.953Z,25.67
2019-05-21T05:52:21.363Z,24.30
2019-05-21T05:54:49.767Z,27.07
2019-05-21T05:57:18.189Z,31.83
2019-05-21T05:59:46.590Z,26.97
2019-05-21T06:02:15.017Z,30.30
2019-05-21T06:04:43.425Z,33.90
2019-05-21T06:07:11.846Z,30.07
2019-05-21T06:09:40.251Z,34.60
2019-05-21T06:12:08.656Z,39.80
2019-05-21T06:14:37.063Z,35.03
2019-05-21T06:17:05.506Z,31.80
2019-05-21T06:19:33.914Z,33.80
2019-05-21T06:22:02.332Z,34.97
2019-05-21T06:24:30.729Z,36.80
2019-05-21T06:26:59.143Z,37.30
2019-05-21T06:29:27.550Z,43.93
2019-05-21T06:31:55.963Z,34.07
2019-05-21T06:34:24.452Z,36.70
2019-05-21T06:36:52.872Z,35.07
2019-05-21T06:39:21.277Z,37.90
2019-05-21T06:41:49.734Z,42.87
2019-05-21T06:44:18.144Z,38.90
2019-05-21T06:46:46.588Z,40.47
2019-05-21T06:49:15.031Z,44.33
2019-05-21T06:51:44.192Z,42.97
2019-05-21T06:54:12.598Z,47.53
2019-05-21T06:56:41.038Z,42.70
2019-05-21T06:59:09.454Z,38.83
2019-05-21T07:01:37.867Z,46.30
2019-05-21T07:04:06.309Z,40.17
2019-05-21T07:06:34.731Z,44.27
2019-05-21T07:09:04.308Z,44.73
2019-05-21T07:11:32.719Z,46.53
2019-05-21T07:14:01.134Z,46.07
2019-05-21T07:16:29.543Z,44.80
2019-05-21T07:18:57.949Z,48.30
2019-05-21T07:21:26.358Z,53.00
2019-05-21T07:23:54.776Z,45.87
2019-05-21T07:26:23.181Z,48.63
2019-05-21T07:28:52.739Z,49.67
2019-05-21T07:31:21.803Z,49.00
2019-05-21T07:33:50.218Z,50.10
2019-05-21T07:36:18.630Z,55.03
2019-05-21T07:38:53.212Z,54.17
2019-05-21T07:41:20.267Z,54.83
2019-05-21T07:43:47.330Z,63.57
2019-05-21T07:46:15.737Z,68.37
2019-05-21T07:48:44.162Z,50.97
2019-05-21T07:51:12.564Z,63.17
2019-05-21T07:53:40.986Z,44.50
2019-05-21T07:56:09.388Z,45.13
2019-05-21T07:58:37.809Z,46.53
2019-05-21T08:01:06.222Z,48.30
2019-05-21T08:03:34.640Z,52.43
2019-05-21T08:06:03.050Z,51.73
2019-05-21T08:08:31.472Z,59.57
2019-05-21T08:10:59.874Z,45.87
2019-05-21T08:13:28.281Z,52.20
2019-05-21T08:15:56.681Z,53.70
2019-05-21T08:18:25.100Z,46.40
2019-05-21T08:20:53.549Z,42.87
2019-05-21T08:23:21.952Z,40.37
2019-05-21T08:25:50.435Z,40.40
2019-05-21T08:28:18.866Z,38.10
2019-05-21T08:30:47.290Z,39.73
2019-05-21T08:33:15.702Z,39.40
2019-05-21T08:35:44.105Z,35.03
2019-05-21T08:38:12.527Z,43.47
2019-05-21T08:40:40.944Z,41.10
2019-05-21T08:43:09.357Z,39.80
2019-05-21T08:45:37.768Z,43.00
2019-05-21T08:48:06.216Z,39.80
2019-05-21T08:50:34.607Z,37.80
2019-05-21T08:53:03.221Z,37.90
2019-05-21T08:55:31.589Z,39.60
2019-05-21T08:58:07.044Z,36.87
2019-05-21T09:00:30.659Z,28.90
2019-05-21T09:02:59.073Z,32.30
2019-05-21T09:05:27.469Z,35.67
2019-05-21T09:07:56.033Z,27.33
2019-05-21T09:10:24.437Z,29.80
2019-05-21T09:12:52.846Z,30.07
2019-05-21T09:15:21.386Z,28.73
2019-05-21T09:17:49.792Z,30.97
2019-05-21T09:20:18.657Z,25.43
2019-05-21T09:22:47.141Z,25.43
2019-05-21T09:25:15.544Z,26.30
2019-05-21T09:27:43.952Z,28.60
2019-05-21T09:30:13.094Z,23.25
2019-05-21T09:32:41.499Z,23.07
2019-05-21T09:35:10.478Z,22.90
2019-05-21T09:37:38.956Z,20.90
2019-05-21T09:40:08.358Z,20.67
2019-05-21T09:42:36.772Z,21.20
2019-05-21T09:45:09.408Z,26.87
2019-05-21T09:47:37.870Z,23.27
2019-05-21T09:50:07.470Z,23.33
2019-05-21T09:52:35.867Z,29.10
2019-05-21T09:55:05.726Z,26.47
2019-05-21T09:57:54.295Z,25.90
2019-05-21T10:00:34.724Z,30.13
2019-05-21T10:03:05.267Z,25.50
2019-05-21T10:05:33.666Z,30.50
2019-05-21T10:08:02.105Z,27.23
2019-05-21T10:10:30.512Z,29.90
2019-05-21T10:12:58.925Z,35.40
2019-05-21T10:15:27.345Z,34.60
2019-05-21T10:17:55.793Z,29.17
2019-05-21T10:20:24.301Z,28.87
2019-05-21T10:22:52.707Z,32.57
2019-05-21T10:25:21.129Z,35.13
2019-05-21T10:27:49.538Z,32.63
2019-05-21T10:30:18.051Z,30.60
2019-05-21T10:32:46.460Z,33.63
2019-05-21T10:35:14.952Z,32.47
2019-05-21T10:37:54.573Z,36.30
2019-05-21T10:40:13.743Z,35.13
2019-05-21T10:42:42.166Z,30.30
2019-05-21T10:45:10.799Z,32.20
2019-05-21T10:47:39.197Z,28.50
2019-05-21T10:50:08.315Z,30.33
2019-05-21T10:52:36.743Z,24.67
2019-05-21T10:55:09.772Z,28.37
2019-05-21T10:57:38.181Z,29.67
2019-05-21T11:00:10.072Z,24.97
2019-05-21T11:02:40.109Z,33.90
2019-05-21T11:05:10.399Z,29.93
2019-05-21T11:07:38.798Z,23.23
2019-05-21T11:10:08.839Z,25.07
2019-05-21T11:12:37.239Z,27.73
2019-05-21T11:15:08.877Z,25.87
2019-05-21T11:17:49.927Z,21.70
2019-05-21T11:20:07.753Z,21.17
2019-05-21T11:22:36.184Z,18.43
2019-05-21T11:25:06.363Z,19.17
2019-05-21T11:27:34.767Z,14.00
2019-05-21T11:30:03.851Z,14.03
2019-05-21T11:32:32.256Z,10.97
2019-05-21T11:35:00.668Z,8.03
2019-05-21T11:37:29.079Z,11.73
2019-05-21T11:39:57.502Z,8.97
2019-05-21T11:42:25.899Z,8.60
2019-05-21T11:44:54.309Z,8.67
2019-05-21T11:47:22.721Z,9.10
2019-05-21T11:49:51.147Z,11.33
2019-05-21T11:52:19.541Z,9.97
2019-05-21T11:54:47.947Z,10.27
2019-05-21T11:57:16.429Z,12.40
2019-05-21T11:59:44.844Z,10.37
2019-05-21T12:02:13.415Z,9.88
2019-05-21T12:04:41.820Z,15.10
2019-05-21T12:07:10.268Z,9.73
2019-05-21T12:09:38.699Z,9.73
2019-05-21T12:12:07.106Z,11.47
2019-05-21T12:14:35.501Z,9.17
2019-05-21T12:17:03.913Z,8.70
2019-05-21T12:19:32.290Z,7.77
2019-05-21T12:22:00.698Z,10.93
2019-05-21T12:24:29.100Z,8.30
2019-05-21T12:26:57.543Z,9.87
2019-05-21T12:29:26.018Z,7.07
2019-05-21T12:31:54.477Z,8.40
2019-05-21T12:34:22.820Z,7.57
2019-05-21T12:36:51.238Z,7.97
2019-05-21T12:39:19.627Z,9.97
2019-05-21T12:41:48.026Z,8.80
2019-05-21T12:44:16.425Z,8.20
2019-05-21T12:46:44.828Z,13.47
2019-05-21T12:49:12.220Z,12.47
2019-05-21T12:51:40.601Z,18.07
2019-05-21T12:54:09.024Z,13.57
2019-05-21T12:56:40.735Z,20.13
2019-05-21T12:59:07.634Z,15.03
2019-05-21T13:01:36.066Z,16.60
2019-05-21T13:04:04.593Z,15.70
2019-05-21T13:06:33.012Z,17.93
2019-05-21T13:09:01.477Z,21.23
2019-05-21T13:11:29.954Z,17.40
2019-05-21T13:13:58.362Z,21.23
2019-05-21T13:16:26.772Z,19.43
2019-05-21T13:18:55.182Z,17.87
2019-05-21T13:21:23.598Z,26.07
2019-05-21T13:23:51.996Z,17.63
2019-05-21T13:26:20.483Z,20.43
2019-05-21T13:28:48.887Z,21.50
2019-05-21T13:31:17.567Z,19.30
2019-05-21T13:33:46.053Z,19.13
2019-05-21T13:36:14.536Z,24.20
2019-05-21T13:38:42.929Z,25.83
2019-05-21T13:41:11.968Z,20.10
2019-05-21T13:43:40.379Z,18.00
2019-05-21T13:46:08.800Z,23.83
2019-05-21T13:48:37.217Z,19.40
2019-05-21T13:51:05.694Z,22.50
2019-05-21T13:53:34.097Z,18.17
2019-05-21T13:56:02.548Z,17.27
2019-05-21T13:58:32.099Z,16.97
2019-05-21T14:01:00.702Z,17.87
2019-05-21T14:03:29.154Z,18.37
2019-05-21T14:05:57.598Z,17.70
2019-05-21T14:08:26.251Z,18.13
2019-05-21T14:10:54.676Z,20.63
2019-05-21T14:13:23.226Z,23.20
2019-05-21T14:15:51.647Z,24.60
2019-05-21T14:18:20.052Z,18.10
2019-05-21T14:20:48.451Z,22.80
2019-05-21T14:23:16.875Z,17.90
2019-05-21T14:25:45.274Z,20.67
2019-05-21T14:28:13.698Z,17.20
2019-05-21T14:30:42.106Z,18.53
2019-05-21T14:33:10.528Z,20.67
2019-05-21T14:35:38.948Z,19.17
2019-05-21T14:38:07.393Z,18.50
2019-05-21T14:40:35.967Z,16.40
2019-05-21T14:43:04.424Z,16.93
2019-05-21T14:45:34.309Z,15.70
2019-05-21T14:48:03.032Z,15.33
2019-05-21T14:50:31.437Z,19.27
2019-05-21T14:52:59.867Z,16.93
2019-05-21T14:55:28.265Z,21.10
2019-05-21T14:57:58.834Z,16.50
2019-05-21T15:00:32.020Z,20.17
2019-05-21T15:03:00.437Z,15.93
2019-05-21T15:05:28.850Z,16.40
2019-05-21T15:07:57.270Z,14.73
2019-05-21T15:10:25.682Z,16.80
2019-05-21T15:12:54.093Z,15.77
2019-05-21T15:15:22.506Z,16.60
2019-05-21T15:17:50.917Z,15.10
2019-05-21T15:20:21.200Z,17.23
2019-05-21T15:22:49.617Z,21.70
2019-05-21T15:25:18.021Z,22.03
2019-05-21T15:27:46.450Z,17.90
2019-05-21T15:30:15.014Z,16.87
2019-05-21T15:32:43.444Z,15.27
2019-05-21T15:35:12.297Z,16.90
2019-05-21T15:37:44.660Z,16.60
2019-05-21T15:40:11.379Z,18.40
2019-05-21T15:42:39.815Z,26.70
2019-05-21T15:45:08.608Z,18.10
2019-05-21T15:47:37.007Z,22.80
2019-05-21T15:50:06.159Z,17.37
2019-05-21T15:52:34.586Z,21.90
2019-05-21T15:55:06.783Z,21.50
2019-05-21T15:57:33.205Z,21.17
2019-05-21T16:00:01.614Z,20.57
2019-05-21T16:02:30.033Z,21.03
2019-05-21T16:04:58.444Z,19.57
2019-05-21T16:07:26.870Z,28.50
2019-05-21T16:09:55.263Z,27.93
2019-05-21T16:12:23.748Z,21.20
2019-05-21T16:14:52.168Z,20.43
2019-05-21T16:17:20.571Z,23.20
2019-05-21T16:19:48.986Z,25.47
2019-05-21T16:22:17.391Z,21.37
2019-05-21T16:24:45.805Z,23.13
2019-05-21T16:27:14.216Z,22.60
2019-05-21T16:29:42.657Z,38.60
2019-05-21T16:32:11.089Z,25.90
2019-05-21T16:34:39.517Z,23.90
2019-05-21T16:37:07.934Z,24.60
2019-05-21T16:39:36.361Z,21.70
2019-05-21T16:42:05.127Z,27.03
2019-05-21T16:44:33.599Z,29.93
2019-05-21T16:47:02.289Z,29.30
2019-05-21T16:49:30.763Z,27.23
2019-05-21T16:51:59.230Z,23.67
2019-05-21T16:54:27.655Z,31.70
2019-05-21T16:56:56.074Z,28.63
2019-05-21T16:59:24.489Z,27.03
2019-05-21T17:01:52.902Z,33.23
2019-05-21T17:04:21.319Z,31.00
2019-05-21T17:06:49.767Z,31.00
2019-05-21T17:09:18.266Z,38.00
2019-05-21T17:11:58.924Z,37.63
2019-05-21T17:14:16.824Z,36.33
2019-05-21T17:16:45.233Z,36.17
2019-05-21T17:19:13.639Z,40.87
2019-05-21T17:21:42.043Z,28.90
2019-05-21T17:24:10.466Z,29.87
2019-05-21T17:26:38.885Z,31.20
2019-05-21T17:29:07.297Z,28.17
2019-05-21T17:31:35.706Z,32.33
2019-05-21T17:34:04.126Z,31.27
2019-05-21T17:36:32.561Z,30.70
2019-05-21T17:39:00.982Z,36.40
2019-05-21T17:41:29.389Z,26.07
2019-05-21T17:43:57.805Z,26.53
2019-05-21T17:46:26.221Z,33.67
2019-05-21T17:48:54.640Z,29.27
2019-05-21T17:51:23.045Z,24.77
2019-05-21T17:53:51.460Z,28.00
2019-05-21T17:56:19.869Z,28.37
2019-05-21T17:58:48.463Z,31.50
2019-05-21T18:01:16.877Z,32.53
2019-05-21T18:03:45.315Z,27.57
2019-05-21T18:06:14.468Z,29.23
2019-05-21T18:08:43.031Z,27.73
2019-05-21T18:11:12.143Z,29.27
2019-05-21T18:13:42.064Z,26.47
2019-05-21T18:16:11.288Z,29.77
2019-05-21T18:18:39.974Z,28.00
2019-05-21T18:21:08.824Z,29.83
2019-05-21T18:23:37.636Z,24.73
2019-05-21T18:26:06.296Z,29.70
2019-05-21T18:28:34.703Z,23.60
2019-05-21T18:31:03.277Z,26.83
2019-05-21T18:33:31.684Z,25.47
2019-05-21T18:36:00.110Z,27.63
2019-05-21T18:38:28.581Z,25.37
2019-05-21T18:40:57.013Z,29.67
2019-05-21T18:43:25.510Z,36.83
2019-05-21T18:45:53.923Z,30.07
2019-05-21T18:48:22.333Z,31.53
2019-05-21T18:50:50.747Z,33.07
2019-05-21T18:53:19.145Z,29.07
2019-05-21T18:55:47.569Z,30.90
2019-05-21T18:58:17.477Z,30.03
2019-05-21T19:00:46.597Z,34.63
2019-05-21T19:03:15.018Z,31.13
2019-05-21T19:05:43.580Z,29.30
2019-05-21T19:08:12.013Z,31.83
2019-05-21T19:10:40.433Z,32.27
2019-05-21T19:13:08.846Z,31.07
2019-05-21T19:15:37.334Z,35.43
2019-05-21T19:18:05.748Z,33.57
2019-05-21T19:20:34.167Z,33.97
2019-05-21T19:23:02.580Z,35.00
2019-05-21T19:25:31.029Z,39.70
2019-05-21T19:27:59.426Z,32.03
2019-05-21T19:30:28.150Z,36.27
2019-05-21T19:32:56.770Z,46.00
2019-05-21T19:35:25.254Z,31.80
2019-05-21T19:37:53.743Z,33.97
2019-05-21T19:40:22.332Z,32.63
2019-05-21T19:42:54.865Z,37.73
2019-05-21T19:45:21.090Z,40.63
2019-05-21T19:47:49.498Z,32.23
2019-05-21T19:50:17.923Z,34.60
2019-05-21T19:52:46.335Z,42.30
2019-05-21T19:55:14.826Z,45.47
2019-05-21T19:57:43.632Z,38.73
2019-05-21T20:00:15.115Z,39.00
2019-05-21T20:02:43.548Z,41.37
2019-05-21T20:05:12.397Z,33.73
2019-05-21T20:07:41.398Z,32.40
2019-05-21T20:10:10.314Z,30.13
2019-05-21T20:12:38.875Z,32.17
2019-05-21T20:15:09.756Z,35.40
2019-05-21T20:17:39.846Z,33.47
2019-05-21T20:20:10.207Z,34.33
2019-05-21T20:22:39.770Z,34.20
2019-05-21T20:25:08.468Z,36.33
2019-05-21T20:27:36.962Z,34.50
2019-05-21T20:30:13.147Z,28.43
2019-05-21T20:32:42.883Z,34.27
2019-05-21T20:35:13.277Z,26.57
2019-05-21T20:37:43.316Z,33.63
2019-05-21T20:40:13.453Z,36.20
2019-05-21T20:42:42.595Z,32.10
2019-05-21T20:45:14.478Z,43.20
2019-05-21T20:47:44.520Z,28.73
2019-05-21T20:50:14.924Z,39.33
2019-05-21T20:52:43.794Z,35.03
2019-05-21T20:55:12.265Z,29.40
2019-05-21T20:57:41.046Z,40.53
2019-05-21T21:00:10.970Z,37.90
2019-05-21T21:02:41.631Z,39.10
2019-05-21T21:05:11.985Z,40.20
2019-05-21T21:07:41.121Z,41.93
2019-05-21T21:10:11.846Z,42.80
2019-05-21T21:12:41.872Z,40.93
2019-05-21T21:15:11.488Z,37.83
2019-05-21T21:17:40.161Z,31.67
2019-05-21T21:20:09.922Z,32.63
2019-05-21T21:22:38.334Z,32.40
2019-05-21T21:25:07.266Z,33.60
2019-05-21T21:27:36.513Z,33.53
2019-05-21T21:30:08.580Z,32.33
2019-05-21T21:32:37.165Z,32.17
2019-05-21T21:35:06.476Z,33.50
2019-05-21T21:37:35.053Z,34.93
2019-05-21T21:40:05.277Z,40.63
2019-05-21T21:42:33.762Z,38.63
2019-05-21T21:45:02.171Z,38.40
2019-05-21T21:47:30.965Z,40.40
2019-05-21T21:49:59.444Z,35.40
2019-05-21T21:52:29.798Z,43.93
2019-05-21T21:54:58.277Z,52.23
2019-05-21T21:57:26.706Z,39.67
2019-05-21T21:59:55.591Z,47.90
2019-05-21T22:02:31.055Z,45.50
2019-05-21T22:04:59.976Z,40.93
2019-05-21T22:07:28.780Z,42.37
2019-05-21T22:09:57.246Z,51.27
2019-05-21T22:12:26.771Z,48.47
2019-05-21T22:14:57.654Z,51.53
2019-05-21T22:17:26.153Z,48.47
2019-05-21T22:19:54.555Z,57.83
2019-05-21T22:22:23.521Z,48.30
2019-05-21T22:24:51.934Z,53.73
2019-05-21T22:27:20.813Z,53.50
2019-05-21T22:29:49.218Z,55.37
2019-05-21T22:32:17.646Z,46.77
2019-05-21T22:34:46.064Z,58.50
2019-05-21T22:37:16.276Z,55.60
2019-05-21T22:39:45.972Z,56.97
2019-05-21T22:42:16.064Z,59.20
2019-05-21T22:44:44.700Z,61.20
2019-05-21T22:47:14.158Z,60.80
2019-05-21T22:49:42.563Z,55.30
2019-05-21T22:52:11.070Z,58.30
2019-05-21T22:54:39.490Z,67.90
2019-05-21T22:57:07.895Z,62.53
2019-05-21T22:59:36.330Z,56.87
2019-05-21T23:02:06.554Z,65.83
2019-05-21T23:04:35.043Z,54.00
2019-05-21T23:07:04.425Z,64.73
2019-05-21T23:09:32.843Z,70.17
2019-05-21T23:12:01.627Z,69.90
2019-05-21T23:14:30.410Z,69.00
2019-05-21T23:16:58.811Z,64.23
2019-05-21T23:19:27.909Z,64.50
2019-05-21T23:21:56.591Z,65.80
2019-05-21T23:24:25.915Z,68.87
2019-05-21T23:26:55.295Z,62.77
2019-05-21T23:29:24.160Z,58.57
2019-05-21T23:31:53.398Z,64.40
2019-05-21T23:34:22.559Z,66.40
2019-05-21T23:36:51.448Z,61.90
2019-05-21T23:39:21.571Z,63.87
2019-05-21T23:41:50.126Z,56.70
2019-05-21T23:44:18.556Z,52.67
2019-05-21T23:46:47.035Z,56.53
2019-05-21T23:49:15.518Z,53.50
2019-05-21T23:51:44.003Z,53.93
2019-05-21T23:54:12.786Z,62.10
2019-05-21T23:56:41.189Z,56.13
2019-05-21T23:59:09.610Z,63.53
